Terminal Aerodrome Forecast
Issued by NWS Duluth, MN

Home | Current Version | Previous Version | Text Only | Print | Product List | Glossary On
Versions: 1 2 3 4 5 6 7 8 9 10 11 12 13 14 15 16 17
000
FTUS43 KDLH 271433 AAB
TAFDLH
TAF AMD
KDLH 271433Z 2715/2812 21005KT P6SM FEW030
     FM271700 16009G16KT P6SM SCT050
     FM280100 12005KT P6SM SKC
     FM280800 14007KT P6SM SCT040=

USA.gov is the U.S. government's official web portal to all federal, state and local government web resources and services.